Time;durP1;ratioP1;P1;durP2;ratioP2;P2;SDS_P1;SDS_P2;PMS_P1;PMS_P2;Temp;Humidity;BMP_temperature;BMP_pressure;BME280_temperature;BME280_humidity;BME280_pressure;Samples;Min_cycle;Max_cycle;Signal;HPM_P1;HPM_P2
2020/12/15 00:02:10;;;;;;;9.32;2.58;;;11.40;90.30;;;;;;4994047;28;20034;-75
2020/12/15 00:04:36;;;;;;;14.52;4.20;;;11.40;90.40;;;;;;4994230;28;20038;-75
2020/12/15 00:07:02;;;;;;;11.57;3.60;;;11.10;90.30;;;;;;4995451;28;20386;-75
2020/12/15 00:09:28;;;;;;;12.13;4.63;;;11.00;90.50;;;;;;4994082;28;20045;-74
2020/12/15 00:11:55;;;;;;;9.43;4.80;;;11.30;90.50;;;;;;4993594;28;20030;-74
2020/12/15 00:14:21;;;;;;;13.45;3.53;;;11.30;90.60;;;;;;4995337;28;20092;-75
2020/12/15 00:16:47;;;;;;;15.57;3.10;;;11.10;90.60;;;;;;4993950;28;20121;-74
2020/12/15 00:19:13;;;;;;;15.82;3.67;;;11.00;90.70;;;;;;4993875;28;20205;-75
2020/12/15 00:21:43;;;;;;;13.35;3.25;;;11.40;90.70;;;;;;4994947;28;20077;-74
2020/12/15 00:24:09;;;;;;;67.28;7.47;;;11.10;90.60;;;;;;4993709;28;20042;-74
2020/12/15 00:26:35;;;;;;;128.88;9.35;;;11.10;90.50;;;;;;4993942;28;20482;-75
2020/12/15 00:29:01;;;;;;;124.25;8.18;;;11.30;90.70;;;;;;4994806;28;20038;-74
2020/12/15 00:31:34;;;;;;;100.70;7.15;;;11.20;90.70;;;;;;4993565;28;20104;-75
2020/12/15 00:34:01;;;;;;;54.38;5.35;;;11.00;90.80;;;;;;4995102;28;20046;-75
2020/12/15 00:36:27;;;;;;;53.08;4.75;;;10.90;90.70;;;;;;4995173;28;20038;-75
2020/12/15 00:38:53;;;;;;;13.25;5.22;;;11.00;90.70;;;;;;4994545;28;20108;-74
2020/12/15 00:41:19;;;;;;;9.82;4.93;;;11.20;90.60;;;;;;4994872;28;20041;-75
2020/12/15 00:43:45;;;;;;;17.20;5.32;;;11.30;90.60;;;;;;4993404;28;20038;-74
2020/12/15 00:46:15;;;;;;;13.13;5.03;;;11.20;90.60;;;;;;4993749;28;20045;-75
2020/12/15 00:48:41;;;;;;;11.43;4.53;;;11.00;90.60;;;;;;4994750;28;20034;-74
2020/12/15 00:51:12;;;;;;;11.95;4.40;;;11.20;90.60;;;;;;4994007;28;20050;-74
2020/12/15 00:53:38;;;;;;;23.48;5.82;;;11.00;90.40;;;;;;4993004;28;20041;-75
2020/12/15 00:56:05;;;;;;;33.60;6.18;;;11.10;90.40;;;;;;4993162;28;20121;-74
2020/12/15 00:58:31;;;;;;;65.82;7.75;;;10.90;90.60;;;;;;4992926;28;20053;-75
2020/12/15 01:00:56;;;;;;;141.30;8.85;;;10.90;90.50;;;;;;4994467;28;20390;-75
2020/12/15 01:03:22;;;;;;;144.50;8.65;;;11.20;90.70;;;;;;4993165;28;20031;-75
2020/12/15 01:05:48;;;;;;;79.88;6.97;;;11.10;90.70;;;;;;4996373;28;20143;-74
2020/12/15 01:08:14;;;;;;;43.45;6.18;;;11.40;90.80;;;;;;4996905;28;20045;-74
2020/12/15 01:10:39;;;;;;;58.42;5.72;;;11.20;90.70;;;;;;4998332;28;20034;-74
2020/12/15 01:13:05;;;;;;;88.38;6.25;;;11.30;90.70;;;;;;4996810;28;20041;-74
2020/12/15 01:15:31;;;;;;;28.70;4.70;;;11.10;90.70;;;;;;4996967;28;20042;-74
2020/12/15 01:17:57;;;;;;;24.30;5.55;;;11.20;90.70;;;;;;4996555;28;20509;-74
2020/12/15 01:20:22;;;;;;;11.77;5.25;;;11.20;90.70;;;;;;4997008;28;20038;-74
2020/12/15 01:22:48;;;;;;;10.82;4.95;;;11.40;90.80;;;;;;4996735;28;20498;-75
2020/12/15 01:25:14;;;;;;;13.05;5.45;;;10.70;90.60;;;;;;4996635;28;20125;-75
2020/12/15 01:27:40;;;;;;;14.85;4.97;;;11.30;90.70;;;;;;4996272;28;20034;-74
2020/12/15 01:30:06;;;;;;;15.77;5.22;;;11.20;90.80;;;;;;4996691;28;20039;-74
2020/12/15 01:32:33;;;;;;;18.60;4.80;;;11.10;90.70;;;;;;4996599;28;20482;-74
2020/12/15 01:34:59;;;;;;;20.90;4.43;;;11.30;90.60;;;;;;4997679;28;20144;-75
2020/12/15 01:37:25;;;;;;;16.98;4.85;;;11.30;90.60;;;;;;4997826;28;20038;-75
2020/12/15 01:39:51;;;;;;;21.42;4.75;;;11.60;90.80;;;;;;4996733;28;20089;-75
2020/12/15 01:42:17;;;;;;;14.68;3.63;;;11.20;90.80;;;;;;4997746;28;20494;-74
2020/12/15 01:44:43;;;;;;;17.48;3.75;;;11.30;90.80;;;;;;4997775;28;20030;-74
2020/12/15 01:47:10;;;;;;;15.27;3.60;;;11.20;90.80;;;;;;4996117;28;20038;-74
2020/12/15 01:49:35;;;;;;;14.05;3.10;;;11.20;90.90;;;;;;4996210;28;20050;-75
2020/12/15 01:52:02;;;;;;;14.45;3.28;;;11.40;90.90;;;;;;4996401;28;20042;-74
2020/12/15 01:54:28;;;;;;;18.17;4.70;;;11.40;90.90;;;;;;4997819;28;20041;-74
2020/12/15 01:56:55;;;;;;;17.52;3.53;;;11.40;90.90;;;;;;4996195;28;20035;-74
2020/12/15 01:59:22;;;;;;;18.58;3.72;;;11.20;91.00;;;;;;4997489;28;20030;-74
2020/12/15 02:01:48;;;;;;;18.67;4.10;;;11.30;91.10;;;;;;4996107;28;20125;-75
2020/12/15 02:04:15;;;;;;;12.80;3.90;;;11.30;90.90;;;;;;4996061;28;20483;-74
2020/12/15 02:06:46;;;;;;;18.30;3.72;;;11.40;90.90;;;;;;4996265;28;20038;-74
2020/12/15 02:09:14;;;;;;;16.05;4.43;;;11.30;90.90;;;;;;4995868;28;20054;-74
2020/12/15 02:11:40;;;;;;;14.07;3.78;;;11.20;90.70;;;;;;4997132;28;20037;-75
2020/12/15 02:14:06;;;;;;;15.20;4.40;;;11.80;90.90;;;;;;4995911;28;20387;-74
2020/12/15 02:16:33;;;;;;;12.63;4.20;;;11.20;90.70;;;;;;4995490;28;20541;-75
2020/12/15 02:18:59;;;;;;;9.63;4.47;;;11.50;90.70;;;;;;4995647;28;20524;-75
2020/12/15 02:21:24;;;;;;;8.52;4.25;;;11.10;90.60;;;;;;4996974;28;20035;-74
2020/12/15 02:23:50;;;;;;;10.82;4.35;;;11.40;90.50;;;;;;4997209;28;20050;-75
2020/12/15 02:26:16;;;;;;;11.20;4.70;;;11.30;90.60;;;;;;4997034;28;20554;-74
2020/12/15 02:28:42;;;;;;;10.23;4.55;;;11.30;90.60;;;;;;4995468;28;20038;-74
2020/12/15 02:31:08;;;;;;;13.98;4.78;;;11.20;90.60;;;;;;4995600;28;20031;-74
2020/12/15 02:33:34;;;;;;;13.43;5.18;;;10.90;90.60;;;;;;4996599;28;20433;-74
2020/12/15 02:36:00;;;;;;;15.43;4.68;;;11.00;90.70;;;;;;4996622;28;20031;-74
2020/12/15 02:38:26;;;;;;;12.05;4.50;;;10.90;90.50;;;;;;4996950;28;20125;-74
2020/12/15 02:40:51;;;;;;;27.83;5.40;;;11.10;90.70;;;;;;4996397;28;20121;-74
2020/12/15 02:43:17;;;;;;;16.85;4.88;;;11.10;90.70;;;;;;4996780;28;20381;-74
2020/12/15 02:45:43;;;;;;;15.30;5.38;;;11.10;90.80;;;;;;4995224;28;20138;-75
2020/12/15 02:48:09;;;;;;;12.75;4.82;;;11.00;90.70;;;;;;4996516;28;20105;-74
2020/12/15 02:50:35;;;;;;;9.20;4.07;;;10.90;90.70;;;;;;4996508;28;20055;-75
2020/12/15 02:53:01;;;;;;;10.68;4.22;;;11.10;90.70;;;;;;4996998;28;20030;-74
2020/12/15 02:55:27;;;;;;;12.68;4.38;;;11.40;90.70;;;;;;4995892;28;20112;-75
2020/12/15 02:57:53;;;;;;;11.20;3.70;;;11.20;90.70;;;;;;4996460;28;20478;-74
2020/12/15 03:00:20;;;;;;;13.45;3.40;;;11.30;90.80;;;;;;4996752;28;20038;-74
2020/12/15 03:02:48;;;;;;;15.00;3.17;;;11.10;90.80;;;;;;4995319;28;20125;-74
2020/12/15 03:05:14;;;;;;;14.32;3.03;;;11.50;90.90;;;;;;4996664;28;20121;-74
2020/12/15 03:07:40;;;;;;;13.45;2.85;;;11.30;90.80;;;;;;4995029;28;20125;-75
2020/12/15 03:10:08;;;;;;;16.55;2.67;;;11.20;90.80;;;;;;4994565;28;20073;-74
2020/12/15 03:12:33;;;;;;;12.82;2.45;;;11.50;90.80;;;;;;4996581;28;20073;-74
2020/12/15 03:14:59;;;;;;;13.63;2.53;;;11.10;90.60;;;;;;4996179;28;20034;-74
2020/12/15 03:17:25;;;;;;;12.65;2.45;;;11.30;90.60;;;;;;4994611;28;20517;-75
2020/12/15 03:19:51;;;;;;;9.88;2.00;;;11.20;90.60;;;;;;4995205;28;20042;-74
2020/12/15 03:22:17;;;;;;;7.32;1.33;;;11.20;90.60;;;;;;4994983;28;20043;-74
2020/12/15 03:24:43;;;;;;;11.13;2.10;;;11.20;90.50;;;;;;4994917;28;20173;-75
2020/12/15 03:27:09;;;;;;;9.95;2.00;;;11.20;90.50;;;;;;4994804;28;20117;-74
2020/12/15 03:29:35;;;;;;;11.02;2.05;;;11.20;90.40;;;;;;4994663;28;20038;-75
2020/12/15 03:32:01;;;;;;;8.48;1.73;;;11.30;90.40;;;;;;4994930;28;20066;-75
2020/12/15 03:34:26;;;;;;;14.85;2.10;;;10.80;90.30;;;;;;4995707;28;20560;-75
2020/12/15 03:36:52;;;;;;;18.60;1.92;;;11.30;90.40;;;;;;4995808;28;20030;-74
2020/12/15 03:39:18;;;;;;;15.48;1.90;;;11.20;90.40;;;;;;4994486;28;20081;-74
2020/12/15 03:41:44;;;;;;;17.38;2.10;;;11.00;90.40;;;;;;4994353;28;20074;-75
2020/12/15 03:44:10;;;;;;;15.52;1.67;;;11.00;90.30;;;;;;4994756;28;20045;-74
2020/12/15 03:46:36;;;;;;;13.50;1.83;;;11.10;90.30;;;;;;4994386;28;20429;-74
2020/12/15 03:49:02;;;;;;;14.43;1.80;;;11.10;90.30;;;;;;4995570;28;20041;-75
2020/12/15 03:51:28;;;;;;;17.02;2.53;;;11.10;90.20;;;;;;4994564;28;20117;-74
2020/12/15 03:53:54;;;;;;;32.13;3.88;;;10.60;90.10;;;;;;5010431;28;20034;-75
2020/12/15 03:56:20;;;;;;;15.82;4.38;;;10.80;90.20;;;;;;4995248;28;20117;-74
2020/12/15 03:58:46;;;;;;;33.92;4.28;;;11.00;90.30;;;;;;4995171;28;20050;-75
2020/12/15 04:01:11;;;;;;;67.72;5.22;;;10.90;90.40;;;;;;4995515;28;20041;-75
2020/12/15 04:03:37;;;;;;;97.47;5.80;;;11.20;90.50;;;;;;4993796;28;20034;-74
2020/12/15 04:06:04;;;;;;;81.38;5.00;;;10.70;90.30;;;;;;4995012;28;20541;-74
2020/12/15 04:08:30;;;;;;;41.30;4.10;;;10.90;90.30;;;;;;4995393;28;20048;-74
2020/12/15 04:10:55;;;;;;;7.65;3.88;;;10.90;90.30;;;;;;4995188;28;20117;-74
2020/12/15 04:13:21;;;;;;;10.07;3.30;;;10.50;90.10;;;;;;4993654;28;20042;-75
2020/12/15 04:15:48;;;;;;;76.38;4.43;;;10.80;90.20;;;;;;4994765;28;20589;-74
2020/12/15 04:18:14;;;;;;;40.88;3.88;;;10.80;90.20;;;;;;4994955;28;20043;-74
2020/12/15 04:20:39;;;;;;;32.20;3.70;;;10.40;90.10;;;;;;4993986;28;20031;-74
2020/12/15 04:23:05;;;;;;;6.18;3.30;;;10.60;90.20;;;;;;4993971;28;20444;-74
2020/12/15 04:25:35;;;;;;;5.32;2.80;;;10.40;90.10;;;;;;4994976;28;20081;-74
2020/12/15 04:28:00;;;;;;;9.80;2.92;;;10.60;90.20;;;;;;4994949;28;20038;-74
2020/12/15 04:30:26;;;;;;;12.55;3.58;;;10.50;90.20;;;;;;4993515;28;20052;-74
2020/12/15 04:32:52;;;;;;;16.30;3.40;;;10.10;90.10;;;;;;5009886;28;20129;-74
2020/12/15 04:35:18;;;;;;;14.75;3.47;;;10.50;90.30;;;;;;4993456;28;20089;-74
2020/12/15 04:37:43;;;;;;;9.80;2.92;;;10.70;90.20;;;;;;4993048;28;20054;-75
2020/12/15 04:40:09;;;;;;;13.60;2.35;;;10.50;90.20;;;;;;4993251;28;20031;-75
2020/12/15 04:42:35;;;;;;;11.75;2.22;;;10.40;90.00;;;;;;4994686;28;20039;-74
2020/12/15 04:45:01;;;;;;;11.85;2.35;;;10.70;90.00;;;;;;4993416;28;20398;-75
2020/12/15 04:47:34;;;;;;;22.52;7.85;;;10.30;89.70;;;;;;4994393;28;20038;-74
2020/12/15 04:50:00;;;;;;;27.67;9.77;;;10.40;89.20;;;;;;4992928;28;20050;-75
2020/12/15 04:52:43;;;;;;;22.38;8.40;;;10.50;89.90;;;;;;5009756;28;20030;-75
2020/12/15 04:55:09;;;;;;;16.08;4.05;;;10.40;89.70;;;;;;4992939;28;20046;-75
2020/12/15 04:57:38;;;;;;;15.80;4.82;;;10.40;89.30;;;;;;4994204;28;20046;-75
2020/12/15 05:00:08;;;;;;;12.13;2.35;;;10.20;89.20;;;;;;4994498;28;20034;-75
2020/12/15 05:02:44;;;;;;;12.73;2.08;;;10.40;89.70;;;;;;4997690;28;20312;-74
2020/12/15 05:05:11;;;;;;;11.50;1.98;;;10.80;89.90;;;;;;5022091;28;20128;-74
2020/12/15 05:07:42;;;;;;;10.38;1.92;;;10.00;89.30;;;;;;5012372;28;20041;-75
2020/12/15 05:10:12;;;;;;;12.60;1.98;;;9.90;89.40;;;;;;5029175;28;20033;-75
2020/12/15 05:12:38;;;;;;;14.15;3.40;;;10.00;89.20;;;;;;5035637;28;20116;-75
2020/12/15 05:15:18;;;;;;;13.57;3.15;;;10.20;89.50;;;;;;5032299;28;20065;-75
2020/12/15 05:17:45;;;;;;;14.38;2.92;;;10.10;89.30;;;;;;5013500;28;20051;-75
2020/12/15 05:20:33;;;;;;;12.70;2.47;;;9.70;89.10;;;;;;5002765;28;20030;-75
2020/12/15 05:22:59;;;;;;;6.03;1.48;;;10.10;89.30;;;;;;5019944;28;20038;-75
2020/12/15 05:25:34;;;;;;;9.75;1.58;;;10.00;88.50;;;;;;5003490;28;20038;-74
2020/12/15 05:28:08;;;;;;;8.90;1.60;;;9.80;88.60;;;;;;4995168;28;20038;-74
2020/12/15 05:30:34;;;;;;;15.13;2.00;;;9.70;88.40;;;;;;4994130;28;20034;-75
2020/12/15 05:33:01;;;;;;;10.70;2.95;;;10.00;88.40;;;;;;4992874;28;20031;-75
2020/12/15 05:35:29;;;;;;;9.63;1.98;;;9.60;88.10;;;;;;4993954;28;20121;-75
2020/12/15 05:37:57;;;;;;;6.60;1.35;;;10.00;88.30;;;;;;4994245;28;20038;-74
2020/12/15 05:40:22;;;;;;;11.45;3.40;;;9.60;87.90;;;;;;4992670;28;20045;-74
2020/12/15 05:42:59;;;;;;;10.65;2.78;;;9.80;88.20;;;;;;4992865;28;20038;-75
2020/12/15 05:45:27;;;;;;;10.90;2.03;;;9.80;87.60;;;;;;5003596;28;20514;-75
2020/12/15 05:48:07;;;;;;;8.45;1.67;;;9.50;88.10;;;;;;5022292;28;20040;-75
2020/12/15 05:50:33;;;;;;;7.60;1.23;;;9.90;87.70;;;;;;5022274;28;20061;-74
2020/12/15 05:53:01;;;;;;;11.63;1.63;;;9.10;87.90;;;;;;5006808;28;20034;-73
2020/12/15 05:55:28;;;;;;;13.57;2.30;;;9.80;88.70;;;;;;5017791;28;20042;-73
2020/12/15 05:57:54;;;;;;;13.77;3.20;;;9.50;88.50;;;;;;5032085;28;20046;-73
2020/12/15 06:00:21;;;;;;;10.90;3.03;;;9.40;88.40;;;;;;5030507;28;20370;-73
2020/12/15 06:02:57;;;;;;;11.52;3.67;;;9.50;88.70;;;;;;5029495;23;20120;-75
2020/12/15 06:05:28;;;;;;;13.23;4.00;;;9.60;88.90;;;;;;5015618;28;20124;-75
2020/12/15 06:07:55;;;;;;;14.18;4.30;;;9.50;88.90;;;;;;5000809;28;20046;-76
2020/12/15 06:10:22;;;;;;;12.32;4.25;;;9.70;88.70;;;;;;5004801;28;20042;-75
2020/12/15 06:12:52;;;;;;;14.02;4.85;;;9.70;88.60;;;;;;5016314;28;20489;-75
2020/12/15 06:15:18;;;;;;;10.10;3.95;;;9.60;88.70;;;;;;5016990;28;20038;-76
2020/12/15 06:18:10;;;;;;;9.68;3.25;;;9.30;88.20;;;;;;5016957;28;20053;-75
2020/12/15 06:20:36;;;;;;;15.30;4.30;;;9.70;87.90;;;;;;5016997;28;20488;-75
2020/12/15 06:23:06;;;;;;;7.65;3.70;;;9.40;87.90;;;;;;5017076;28;20041;-75
2020/12/15 06:25:36;;;;;;;13.07;2.60;;;9.30;88.00;;;;;;5016462;28;20527;-75
2020/12/15 06:28:10;;;;;;;10.65;2.90;;;9.50;88.00;;;;;;5016911;28;20045;-75
2020/12/15 06:30:42;;;;;;;6.90;1.50;;;9.10;87.70;;;;;;5016901;28;20038;-75
2020/12/15 06:33:14;;;;;;;12.68;1.75;;;9.40;87.80;;;;;;5016642;28;20037;-75
2020/12/15 06:35:43;;;;;;;7.20;1.08;;;9.40;86.80;;;;;;5015928;28;20129;-75
2020/12/15 06:38:20;;;;;;;8.43;0.70;;;9.30;87.00;;;;;;5015968;28;20076;-75
2020/12/15 06:40:47;;;;;;;11.48;1.10;;;9.40;87.50;;;;;;5016701;28;20041;-73
2020/12/15 06:43:27;;;;;;;9.05;1.05;;;9.40;87.50;;;;;;5015900;28;20087;-75
2020/12/15 06:46:11;;;;;;;11.00;1.20;;;9.60;87.10;;;;;;5016562;28;20065;-75
2020/12/15 06:48:38;;;;;;;10.60;0.90;;;9.50;88.20;;;;;;4996519;28;20050;-75
2020/12/15 06:51:04;;;;;;;10.10;1.20;;;9.40;88.00;;;;;;4996926;28;20042;-76
2020/12/15 06:53:30;;;;;;;8.90;0.90;;;9.60;88.30;;;;;;4996150;28;20041;-74
2020/12/15 06:56:01;;;;;;;10.55;1.45;;;9.40;88.30;;;;;;4996532;28;20034;-75
2020/12/15 06:58:27;;;;;;;9.15;2.00;;;9.20;87.80;;;;;;4996537;28;20046;-77
2020/12/15 07:00:53;;;;;;;9.32;2.55;;;9.30;87.70;;;;;;4996592;28;20047;-76
2020/12/15 07:03:34;;;;;;;11.85;6.15;;;9.40;87.40;;;;;;5005547;28;20054;-76
2020/12/15 07:06:15;;;;;;;28.13;16.17;;;9.30;87.40;;;;;;5016015;28;20041;-76
2020/12/15 07:08:42;;;;;;;27.48;18.02;;;9.50;87.00;;;;;;5015083;28;20116;-76
2020/12/15 07:11:08;;;;;;;26.20;16.17;;;9.50;87.60;;;;;;5015928;28;20045;-76
2020/12/15 07:13:34;;;;;;;22.38;12.88;;;9.10;87.50;;;;;;5015899;28;20052;-75
2020/12/15 07:16:00;;;;;;;18.92;11.65;;;9.00;87.30;;;;;;5015800;28;20038;-74
2020/12/15 07:18:30;;;;;;;9.25;5.20;;;9.60;87.60;;;;;;5031023;28;20072;-75
2020/12/15 07:20:56;;;;;;;11.32;2.30;;;9.40;87.50;;;;;;5016213;28;20049;-73
2020/12/15 07:23:22;;;;;;;7.32;2.40;;;9.40;87.50;;;;;;5015949;28;20045;-73
2020/12/15 07:25:48;;;;;;;9.40;2.28;;;9.10;87.40;;;;;;5016047;28;20576;-73
2020/12/15 07:28:14;;;;;;;6.65;1.23;;;9.50;87.80;;;;;;5015807;28;20435;-73
2020/12/15 07:30:39;;;;;;;6.88;1.73;;;9.30;87.20;;;;;;5015808;28;20041;-73
2020/12/15 07:33:05;;;;;;;9.13;1.60;;;9.30;87.20;;;;;;5015208;28;20117;-73
2020/12/15 07:35:32;;;;;;;8.93;1.48;;;9.10;87.20;;;;;;5015477;28;20053;-73
2020/12/15 07:38:01;;;;;;;11.57;1.48;;;9.00;86.70;;;;;;5012207;28;20060;-75
2020/12/15 07:40:29;;;;;;;15.52;1.20;;;9.00;86.70;;;;;;5013263;28;20096;-75
2020/12/15 07:43:00;;;;;;;8.43;1.60;;;9.30;86.80;;;;;;5014396;28;20176;-76
2020/12/15 07:45:29;;;;;;;4.80;1.00;;;9.50;86.90;;;;;;5013686;28;20037;-74
2020/12/15 07:47:55;;;;;;;11.18;1.48;;;9.50;87.00;;;;;;5014591;28;20120;-75
2020/12/15 07:50:31;;;;;;;8.05;1.67;;;9.40;87.10;;;;;;5012998;28;20607;-74
2020/12/15 07:53:07;;;;;;;11.90;1.50;;;9.40;87.50;;;;;;5013507;28;20400;-74
2020/12/15 07:55:33;;;;;;;10.73;1.48;;;9.10;87.20;;;;;;5013121;28;20029;-74
2020/12/15 07:57:58;;;;;;;11.07;1.73;;;9.30;87.40;;;;;;5013956;28;20400;-73
2020/12/15 08:00:24;;;;;;;8.38;1.98;;;9.60;87.60;;;;;;5013883;28;20042;-73
2020/12/15 08:02:59;;;;;;;9.70;1.70;;;9.30;87.20;;;;;;5021970;28;20061;-73
2020/12/15 08:05:25;;;;;;;9.23;1.83;;;9.60;87.20;;;;;;5015396;28;20056;-74
2020/12/15 08:07:57;;;;;;;12.77;2.58;;;9.40;86.70;;;;;;5030462;28;20219;-73
2020/12/15 08:10:32;;;;;;;8.30;2.70;;;9.10;86.20;;;;;;5032798;28;20049;-73
2020/12/15 08:13:00;;;;;;;12.00;2.95;;;9.20;86.90;;;;;;5032657;28;20148;-74
2020/12/15 08:15:28;;;;;;;12.00;3.10;;;9.70;86.90;;;;;;5031671;28;20508;-75
2020/12/15 08:17:55;;;;;;;13.43;2.70;;;9.90;87.00;;;;;;5032624;28;20045;-74
2020/12/15 08:20:27;;;;;;;12.70;3.40;;;9.50;86.80;;;;;;5032901;28;20072;-74
2020/12/15 08:23:12;;;;;;;12.52;3.53;;;10.30;86.80;;;;;;5032483;28;20045;-74
2020/12/15 08:25:43;;;;;;;8.60;3.25;;;10.40;85.90;;;;;;5033593;28;20045;-74
2020/12/15 08:28:21;;;;;;;9.13;3.20;;;11.40;85.80;;;;;;5034052;28;20530;-74
2020/12/15 08:30:51;;;;;;;10.48;2.67;;;11.60;85.20;;;;;;5033455;28;20095;-74
2020/12/15 08:33:26;;;;;;;7.68;2.03;;;12.50;84.20;;;;;;5033795;28;20061;-74
2020/12/15 08:35:54;;;;;;;5.50;1.30;;;12.90;83.50;;;;;;5032638;28;20077;-74
2020/12/15 08:38:26;;;;;;;7.28;1.80;;;13.50;82.60;;;;;;5033464;28;20044;-74
2020/12/15 08:40:57;;;;;;;6.35;1.83;;;13.80;81.70;;;;;;5033638;28;20092;-74
2020/12/15 08:43:23;;;;;;;7.78;2.92;;;14.40;80.40;;;;;;5023659;28;20121;-73
2020/12/15 08:45:50;;;;;;;5.90;1.90;;;14.80;78.60;;;;;;5013360;28;20041;-73
2020/12/15 08:48:22;;;;;;;7.78;2.63;;;15.00;77.70;;;;;;5014061;28;20034;-74
2020/12/15 08:50:48;;;;;;;5.25;2.20;;;15.70;77.10;;;;;;5014281;28;20140;-73
2020/12/15 08:53:15;;;;;;;13.23;5.82;;;16.00;75.80;;;;;;5013189;28;20108;-74
2020/12/15 08:55:44;;;;;;;8.30;3.90;;;16.30;75.20;;;;;;5012405;28;20115;-74
2020/12/15 08:58:10;;;;;;;7.10;3.13;;;16.10;74.00;;;;;;5013495;28;20512;-73
2020/12/15 09:00:40;;;;;;;6.43;3.20;;;16.40;74.00;;;;;;5013151;28;20489;-73
2020/12/15 09:03:07;;;;;;;7.20;3.42;;;16.70;72.20;;;;;;5013341;28;20050;-73
2020/12/15 09:05:54;;;;;;;8.88;3.03;;;17.00;71.20;;;;;;5013031;28;20041;-74
2020/12/15 09:08:24;;;;;;;7.78;2.90;;;17.00;71.20;;;;;;5012027;28;20111;-73
2020/12/15 09:10:54;;;;;;;5.38;2.33;;;17.00;71.00;;;;;;5013485;28;20081;-73
2020/12/15 09:13:20;;;;;;;6.18;2.70;;;16.80;70.70;;;;;;5013289;28;20517;-73
2020/12/15 09:15:51;;;;;;;6.03;2.90;;;16.10;70.40;;;;;;5013117;28;20116;-73
2020/12/15 09:18:30;;;;;;;7.68;3.03;;;15.40;70.40;;;;;;5013344;28;20049;-73
2020/12/15 09:20:56;;;;;;;7.70;3.30;;;14.60;70.80;;;;;;5013261;28;20485;-73
2020/12/15 09:23:27;;;;;;;5.93;3.15;;;14.30;72.00;;;;;;5013058;28;20049;-73
2020/12/15 09:25:54;;;;;;;6.80;3.22;;;13.80;73.00;;;;;;5013769;28;20046;-73
2020/12/15 09:28:27;;;;;;;6.35;3.33;;;13.70;74.30;;;;;;5016741;28;20045;-75
2020/12/15 09:30:53;;;;;;;8.13;3.88;;;13.40;75.80;;;;;;5016630;28;20041;-74
2020/12/15 09:33:18;;;;;;;9.13;4.30;;;13.10;77.10;;;;;;5016875;28;20038;-75
2020/12/15 09:35:44;;;;;;;10.00;4.13;;;13.30;78.20;;;;;;5016831;28;20042;-74
2020/12/15 09:38:11;;;;;;;8.35;3.75;;;13.30;78.30;;;;;;5016867;28;20046;-74
2020/12/15 09:40:36;;;;;;;10.02;4.03;;;13.30;78.40;;;;;;5016903;28;20045;-75
2020/12/15 09:43:02;;;;;;;11.13;4.20;;;13.50;78.50;;;;;;5016257;28;20034;-73
2020/12/15 09:45:28;;;;;;;9.50;5.00;;;13.60;79.20;;;;;;5016475;28;20042;-74
2020/12/15 09:47:58;;;;;;;13.00;4.47;;;13.60;79.60;;;;;;5015371;28;20601;-73
2020/12/15 09:50:24;;;;;;;10.07;4.85;;;13.70;79.10;;;;;;5016688;28;20042;-73
2020/12/15 09:52:49;;;;;;;10.48;3.67;;;13.70;79.70;;;;;;5016325;28;20065;-73
2020/12/15 09:55:15;;;;;;;7.65;3.40;;;13.70;82.90;;;;;;5016583;28;20033;-74
2020/12/15 09:57:41;;;;;;;10.45;3.58;;;14.00;84.90;;;;;;5016495;28;20099;-74
2020/12/15 10:00:07;;;;;;;4.95;1.77;;;14.50;86.00;;;;;;5016213;28;20046;-74
2020/12/15 10:02:32;;;;;;;7.10;1.60;;;14.90;85.90;;;;;;4998615;28;20053;-74
2020/12/15 10:04:58;;;;;;;5.07;1.38;;;15.00;84.40;;;;;;5016328;28;20061;-73
2020/12/15 10:07:24;;;;;;;4.22;0.80;;;15.20;83.60;;;;;;5016058;28;20175;-73
2020/12/15 10:09:54;;;;;;;4.30;0.73;;;15.10;82.90;;;;;;5016244;28;20072;-74
2020/12/15 10:12:20;;;;;;;7.70;0.90;;;15.20;82.50;;;;;;5016286;28;20116;-74
2020/12/15 10:14:47;;;;;;;5.75;0.70;;;15.50;82.80;;;;;;5015869;28;20045;-74
2020/12/15 10:17:12;;;;;;;4.10;0.40;;;15.60;82.60;;;;;;5016077;28;20071;-73
2020/12/15 10:19:39;;;;;;;3.10;0.47;;;15.40;81.80;;;;;;5016649;28;20045;-76
2020/12/15 10:22:04;;;;;;;5.47;0.47;;;15.10;81.40;;;;;;5016725;28;20092;-74
2020/12/15 10:24:30;;;;;;;4.55;0.40;;;14.90;81.30;;;;;;5016670;28;20033;-74
2020/12/15 10:26:56;;;;;;;3.72;0.40;;;14.90;81.70;;;;;;5016608;28;20041;-74
2020/12/15 10:29:23;;;;;;;4.18;0.40;;;14.40;81.90;;;;;;5015704;28;20041;-73
2020/12/15 10:31:49;;;;;;;3.08;0.25;;;14.50;82.30;;;;;;5016036;28;20056;-73
2020/12/15 10:34:15;;;;;;;5.88;0.40;;;14.40;82.60;;;;;;5033850;28;20108;-73
2020/12/15 10:36:41;;;;;;;3.63;0.50;;;14.40;83.00;;;;;;5020500;28;20045;-72
2020/12/15 10:39:07;;;;;;;4.25;0.45;;;14.40;83.00;;;;;;5028883;28;20049;-73
2020/12/15 10:41:36;;;;;;;5.57;0.30;;;14.20;82.80;;;;;;5035581;28;20048;-73
2020/12/15 10:44:03;;;;;;;3.80;0.45;;;14.50;83.30;;;;;;5035653;28;20095;-73
2020/12/15 10:46:28;;;;;;;3.83;0.35;;;14.60;83.60;;;;;;5036156;28;20087;-73
2020/12/15 10:48:54;;;;;;;3.22;0.22;;;15.10;83.90;;;;;;5035871;28;20117;-73
2020/12/15 10:51:21;;;;;;;3.20;0.25;;;15.20;83.80;;;;;;5035600;28;20044;-73
2020/12/15 10:53:47;;;;;;;2.40;0.28;;;15.30;83.40;;;;;;5035983;28;20055;-73
2020/12/15 10:56:13;;;;;;;3.97;0.30;;;15.30;83.00;;;;;;5035534;28;20503;-74
2020/12/15 10:58:39;;;;;;;1.95;0.25;;;15.30;82.60;;;;;;5035586;28;20060;-73
2020/12/15 11:01:07;;;;;;;2.10;0.30;;;15.00;82.40;;;;;;5035471;28;20072;-73
2020/12/15 11:03:34;;;;;;;2.05;0.40;;;14.70;82.10;;;;;;5035311;28;20049;-74
2020/12/15 11:06:00;;;;;;;4.47;0.45;;;14.50;82.20;;;;;;5035830;28;20040;-73
2020/12/15 11:08:26;;;;;;;3.92;0.40;;;14.50;82.40;;;;;;5035763;28;20493;-74
2020/12/15 11:10:54;;;;;;;4.00;0.40;;;14.60;82.80;;;;;;5035621;28;20070;-73
2020/12/15 11:13:20;;;;;;;3.42;0.40;;;14.50;82.70;;;;;;5035158;28;20077;-73
2020/12/15 11:15:45;;;;;;;3.08;0.20;;;14.10;82.40;;;;;;5035466;28;20065;-73
2020/12/15 11:18:11;;;;;;;3.83;0.20;;;14.00;82.70;;;;;;5033875;28;20060;-73
2020/12/15 11:20:37;;;;;;;5.25;0.50;;;14.00;83.20;;;;;;5035299;28;20045;-73
2020/12/15 11:23:04;;;;;;;5.03;0.40;;;13.90;83.80;;;;;;5034221;28;20120;-73
2020/12/15 11:25:30;;;;;;;7.90;0.70;;;13.70;84.20;;;;;;5035159;28;20452;-73
2020/12/15 11:27:56;;;;;;;5.65;0.50;;;13.90;84.90;;;;;;5035429;28;20137;-74
2020/12/15 11:30:22;;;;;;;4.57;0.32;;;13.80;85.20;;;;;;5035512;28;20022;-74
2020/12/15 11:32:48;;;;;;;3.95;0.40;;;14.00;85.60;;;;;;5035274;28;20037;-73
2020/12/15 11:35:14;;;;;;;5.60;0.50;;;13.90;85.90;;;;;;5035212;28;20038;-74
2020/12/15 11:47:27;;;;;;;2.20;0.10;;;14.70;86.80;;;;;;5030550;28;20443;-73
2020/12/15 11:49:52;;;;;;;3.85;0.20;;;14.70;86.50;;;;;;5033964;28;20037;-73
2020/12/15 11:52:18;;;;;;;3.20;0.10;;;15.30;87.10;;;;;;5034288;28;20053;-73
2020/12/15 11:54:45;;;;;;;3.50;0.10;;;15.30;86.90;;;;;;5034725;28;20387;-74
2020/12/15 11:57:14;;;;;;;1.75;0.10;;;15.60;85.60;;;;;;5034496;28;20038;-73
2020/12/15 11:59:40;;;;;;;1.85;0.10;;;15.70;84.40;;;;;;5034643;28;20049;-73
2020/12/15 12:02:06;;;;;;;1.25;0.10;;;15.60;83.30;;;;;;5034362;28;20065;-73
2020/12/15 12:04:32;;;;;;;1.42;0.10;;;15.40;82.90;;;;;;5034611;28;20079;-73
2020/12/15 12:06:58;;;;;;;1.10;0.00;;;15.30;82.70;;;;;;5031045;28;20508;-74
2020/12/15 12:09:24;;;;;;;2.33;0.00;;;15.20;82.50;;;;;;5033727;28;20099;-73
2020/12/15 12:11:50;;;;;;;2.33;0.17;;;14.90;82.40;;;;;;5034032;28;20052;-74
2020/12/15 12:14:17;;;;;;;1.55;0.10;;;15.30;82.70;;;;;;5034141;28;20048;-73
2020/12/15 12:16:43;;;;;;;2.42;0.20;;;14.90;82.60;;;;;;5033844;28;20396;-74
2020/12/15 12:19:09;;;;;;;1.52;0.03;;;15.00;82.70;;;;;;5016619;28;20048;-73
2020/12/15 12:21:35;;;;;;;2.42;0.15;;;14.60;82.80;;;;;;5034134;28;20361;-73
2020/12/15 12:24:01;;;;;;;2.38;0.20;;;14.60;83.10;;;;;;5034156;28;20082;-73
2020/12/15 12:26:27;;;;;;;3.45;0.20;;;14.60;83.10;;;;;;5033743;28;20043;-73
2020/12/15 12:28:53;;;;;;;2.03;0.10;;;14.60;83.20;;;;;;5033870;28;20047;-74
2020/12/15 12:31:19;;;;;;;3.05;0.10;;;14.60;83.50;;;;;;5034491;28;20384;-73
2020/12/15 12:33:45;;;;;;;4.75;0.20;;;14.40;83.60;;;;;;5034160;28;20050;-74
2020/12/15 12:36:11;;;;;;;2.47;0.20;;;14.30;83.60;;;;;;5034531;28;20048;-73
2020/12/15 12:38:37;;;;;;;7.55;1.73;;;14.20;83.90;;;;;;5034106;28;20057;-73
2020/12/15 12:41:03;;;;;;;5.13;2.03;;;14.30;84.10;;;;;;5033789;28;20048;-74
2020/12/15 12:43:28;;;;;;;8.95;2.65;;;14.20;84.40;;;;;;5033980;28;20041;-73
2020/12/15 12:45:54;;;;;;;6.80;2.15;;;13.70;84.50;;;;;;5034225;28;20061;-73
2020/12/15 12:48:20;;;;;;;9.80;2.20;;;13.80;84.90;;;;;;5033562;28;20048;-74
2020/12/15 12:50:46;;;;;;;5.10;2.17;;;14.00;85.40;;;;;;5034087;28;20038;-74
2020/12/15 12:53:13;;;;;;;8.40;2.15;;;14.20;85.90;;;;;;5033526;28;20076;-73
2020/12/15 12:55:39;;;;;;;5.85;2.25;;;14.30;86.00;;;;;;5033384;28;20045;-73